createdAt,value
2022-10-02T00:02:21.159Z,1.98
2022-10-02T00:04:48.517Z,2.47
2022-10-02T00:07:17.989Z,2.08
2022-10-02T00:09:45.027Z,2.58
2022-10-02T00:12:15.004Z,2.85
2022-10-02T00:14:43.299Z,2.30
2022-10-02T00:17:16.651Z,2.30
2022-10-02T00:19:43.756Z,2.90
2022-10-02T00:22:20.460Z,2.20
2022-10-02T00:24:58.432Z,2.10
2022-10-02T00:27:35.027Z,2.30
2022-10-02T00:30:03.040Z,2.40
2022-10-02T00:32:42.396Z,2.67
2022-10-02T00:35:21.037Z,2.65
2022-10-02T00:38:00.447Z,1.92
2022-10-02T00:40:40.455Z,2.33
2022-10-02T00:43:13.680Z,1.95
2022-10-02T00:45:50.488Z,2.58
2022-10-02T00:48:17.611Z,2.97
2022-10-02T00:50:44.726Z,2.80
2022-10-02T00:53:15.212Z,2.92
2022-10-02T00:56:05.538Z,2.85
2022-10-02T00:58:38.624Z,2.38
2022-10-02T01:01:18.768Z,3.20
2022-10-02T01:03:54.377Z,2.65
2022-10-02T01:06:24.146Z,2.35
2022-10-02T01:08:52.064Z,2.42
2022-10-02T01:11:20.633Z,3.47
2022-10-02T01:13:48.180Z,2.50
2022-10-02T01:16:16.385Z,2.38
2022-10-02T01:18:46.108Z,2.63
2022-10-02T01:21:15.590Z,2.22
2022-10-02T01:24:05.072Z,2.38
2022-10-02T01:26:32.763Z,2.10
2022-10-02T01:28:59.975Z,2.33
2022-10-02T01:31:29.407Z,2.00
2022-10-02T01:33:56.743Z,2.67
2022-10-02T01:36:23.991Z,2.15
2022-10-02T01:38:52.434Z,2.22
2022-10-02T01:41:20.200Z,2.38
2022-10-02T01:43:52.898Z,2.60
2022-10-02T01:46:23.034Z,2.78
2022-10-02T01:49:01.482Z,2.70
2022-10-02T01:51:49.882Z,2.45
2022-10-02T01:54:17.082Z,2.05
2022-10-02T01:57:13.865Z,2.80
2022-10-02T01:59:46.938Z,2.55
2022-10-02T02:02:20.285Z,2.72
2022-10-02T02:05:03.582Z,4.25
2022-10-02T02:07:30.610Z,2.78
2022-10-02T02:10:07.839Z,3.78
2022-10-02T02:12:35.095Z,2.72
2022-10-02T02:15:17.343Z,2.60
2022-10-02T02:17:58.232Z,2.85
2022-10-02T02:20:31.030Z,2.80
2022-10-02T02:23:11.084Z,2.72
2022-10-02T02:25:45.462Z,2.80
2022-10-02T02:28:14.612Z,3.35
2022-10-02T02:30:44.512Z,2.95
2022-10-02T02:33:15.761Z,2.95
2022-10-02T02:35:45.272Z,2.85
2022-10-02T02:38:15.732Z,2.88
2022-10-02T02:40:44.419Z,2.67
2022-10-02T02:43:25.527Z,2.60
2022-10-02T02:45:55.413Z,3.20
2022-10-02T02:48:22.544Z,2.88
2022-10-02T02:51:05.199Z,3.33
2022-10-02T02:56:00.716Z,2.53
2022-10-02T02:58:41.311Z,2.90
2022-10-02T03:01:08.605Z,2.92
2022-10-02T03:03:35.796Z,2.75
2022-10-02T03:06:06.555Z,2.85
2022-10-02T03:08:36.417Z,2.80
2022-10-02T03:11:06.003Z,2.70
2022-10-02T03:13:39.063Z,2.53
2022-10-02T03:16:25.074Z,3.90
2022-10-02T03:19:07.368Z,3.13
2022-10-02T03:21:46.199Z,2.85
2022-10-02T03:24:31.927Z,2.90
2022-10-02T03:27:11.015Z,3.35
2022-10-02T03:29:49.788Z,3.10
2022-10-02T03:32:18.108Z,3.08
2022-10-02T03:34:45.226Z,2.78
2022-10-02T03:37:12.300Z,2.85
2022-10-02T03:39:46.027Z,2.75
2022-10-02T03:42:13.981Z,3.22
2022-10-02T03:44:41.092Z,2.90
2022-10-02T03:47:08.214Z,4.43
2022-10-02T03:49:35.321Z,3.90
2022-10-02T03:52:02.493Z,3.30
2022-10-02T03:54:32.041Z,3.17
2022-10-02T03:57:00.951Z,3.35
2022-10-02T03:59:36.784Z,2.30
2022-10-02T04:02:06.838Z,1.98
2022-10-02T04:04:45.305Z,3.05
2022-10-02T04:07:15.856Z,2.67
2022-10-02T04:09:54.915Z,2.63
2022-10-02T04:12:27.631Z,2.53
2022-10-02T04:14:58.130Z,3.45
2022-10-02T04:17:32.953Z,2.47
2022-10-02T04:20:03.682Z,2.67
2022-10-02T04:22:35.390Z,2.78
2022-10-02T04:25:07.652Z,3.10
2022-10-02T04:27:40.567Z,2.67
2022-10-02T04:30:11.137Z,2.65
2022-10-02T04:32:38.551Z,3.30
2022-10-02T04:35:14.737Z,3.47
2022-10-02T04:37:44.628Z,2.70
2022-10-02T04:40:24.544Z,2.50
2022-10-02T04:43:00.595Z,2.92
2022-10-02T04:45:54.115Z,2.60
2022-10-02T04:48:40.111Z,2.30
2022-10-02T04:51:16.314Z,2.92
2022-10-02T04:54:01.899Z,2.85
2022-10-02T04:56:38.398Z,3.03
2022-10-02T04:59:20.516Z,2.97
2022-10-02T05:01:59.788Z,2.97
2022-10-02T05:04:53.399Z,2.80
2022-10-02T05:07:46.691Z,2.80
2022-10-02T05:10:36.807Z,2.58
2022-10-02T05:13:10.737Z,3.03
2022-10-02T05:15:40.827Z,1.48
2022-10-02T05:18:08.011Z,3.20
2022-10-02T05:20:42.098Z,3.25
2022-10-02T05:23:22.176Z,2.95
2022-10-02T05:25:52.360Z,2.55
2022-10-02T05:30:53.242Z,2.17
2022-10-02T05:33:35.852Z,2.90
2022-10-02T05:38:45.337Z,2.88
2022-10-02T05:41:12.398Z,2.92
2022-10-02T05:43:43.019Z,3.05
2022-10-02T05:46:23.857Z,2.75
2022-10-02T05:49:06.751Z,2.75
2022-10-02T05:51:53.541Z,2.95
2022-10-02T05:54:23.934Z,2.72
2022-10-02T05:56:58.442Z,2.47
2022-10-02T05:59:44.865Z,2.45
2022-10-02T06:02:18.899Z,2.65
2022-10-02T06:04:49.959Z,1.77
2022-10-02T06:07:19.111Z,2.60
2022-10-02T06:09:48.866Z,2.72
2022-10-02T06:12:19.087Z,3.33
2022-10-02T06:17:26.659Z,2.30
2022-10-02T06:20:03.634Z,3.28
2022-10-02T06:22:36.604Z,2.83
2022-10-02T06:25:07.084Z,2.97
2022-10-02T06:27:44.094Z,2.78
2022-10-02T06:30:13.331Z,3.33
2022-10-02T06:32:40.602Z,3.45
2022-10-02T06:35:12.370Z,2.60
2022-10-02T06:37:39.421Z,2.60
2022-10-02T06:40:06.504Z,2.97
2022-10-02T06:42:33.603Z,3.30
2022-10-02T06:45:04.028Z,3.10
2022-10-02T06:47:49.864Z,3.35
2022-10-02T06:50:18.226Z,4.68
2022-10-02T06:52:47.664Z,6.28
2022-10-02T06:55:23.017Z,4.63
2022-10-02T06:58:03.720Z,5.15
2022-10-02T07:00:32.721Z,3.60
2022-10-02T07:02:59.875Z,3.00
2022-10-02T07:05:48.831Z,3.13
2022-10-02T07:08:25.362Z,3.95
2022-10-02T07:11:04.019Z,2.72
2022-10-02T07:13:53.390Z,3.30
2022-10-02T07:16:35.496Z,2.70
2022-10-02T07:22:25.961Z,2.70
2022-10-02T07:25:05.952Z,2.90
2022-10-02T07:27:36.093Z,2.90
2022-10-02T07:32:34.017Z,2.80
2022-10-02T07:35:27.760Z,3.13
2022-10-02T07:38:15.625Z,3.08
2022-10-02T07:41:18.469Z,2.72
2022-10-02T07:44:06.360Z,3.47
2022-10-02T07:46:51.624Z,3.17
2022-10-02T07:49:32.936Z,3.00
2022-10-02T07:52:36.883Z,3.25
2022-10-02T07:55:21.533Z,2.78
2022-10-02T07:57:49.503Z,2.85
2022-10-02T08:00:18.806Z,2.35
2022-10-02T08:03:08.397Z,2.88
2022-10-02T08:05:41.139Z,2.42
2022-10-02T08:08:38.606Z,2.60
2022-10-02T08:11:17.128Z,2.42
2022-10-02T08:13:49.664Z,2.25
2022-10-02T08:16:17.941Z,2.38
2022-10-02T08:21:46.966Z,2.80
2022-10-02T08:24:42.957Z,2.42
2022-10-02T08:27:16.532Z,2.63
2022-10-02T08:29:49.360Z,2.40
2022-10-02T08:32:16.015Z,2.13
2022-10-02T08:34:44.083Z,2.47
2022-10-02T08:37:31.699Z,2.60
2022-10-02T08:40:16.991Z,2.60
2022-10-02T08:43:22.732Z,2.40
2022-10-02T08:45:50.062Z,2.47
2022-10-02T08:48:54.821Z,1.85
2022-10-02T08:51:21.921Z,2.28
2022-10-02T08:54:07.260Z,2.05
2022-10-02T08:56:55.912Z,2.97
2022-10-02T08:59:54.940Z,2.22
2022-10-02T09:02:34.850Z,5.00
2022-10-02T09:05:20.592Z,5.28
2022-10-02T09:08:08.446Z,3.67
2022-10-02T09:10:58.959Z,2.42
2022-10-02T09:13:29.193Z,2.97
2022-10-02T09:16:10.258Z,3.22
2022-10-02T09:18:54.261Z,2.70
2022-10-02T09:21:49.998Z,2.13
2022-10-02T09:24:32.347Z,2.13
2022-10-02T09:26:59.140Z,2.20
2022-10-02T09:30:14.022Z,2.17
2022-10-02T09:33:06.754Z,2.45
2022-10-02T09:35:36.475Z,2.13
2022-10-02T09:38:45.604Z,2.10
2022-10-02T09:41:26.151Z,2.08
2022-10-02T09:43:53.225Z,2.10
2022-10-02T09:46:49.331Z,2.65
2022-10-02T09:49:45.057Z,2.30
2022-10-02T09:52:42.898Z,2.17
2022-10-02T09:55:43.591Z,2.13
2022-10-02T10:01:13.478Z,1.80
2022-10-02T10:04:01.567Z,1.83
2022-10-02T10:09:48.532Z,2.17
2022-10-02T10:12:41.648Z,1.88
2022-10-02T10:15:09.379Z,1.98
2022-10-02T10:17:39.590Z,2.00
2022-10-02T10:20:06.891Z,2.20
2022-10-02T10:23:07.270Z,1.98
2022-10-02T10:26:02.738Z,2.05
2022-10-02T10:29:09.237Z,2.08
2022-10-02T10:31:48.317Z,2.05
2022-10-02T10:34:39.065Z,1.80
2022-10-02T10:37:25.582Z,2.33
2022-10-02T10:40:15.764Z,1.88
2022-10-02T10:43:18.810Z,2.20
2022-10-02T10:46:06.582Z,1.70
2022-10-02T10:48:49.590Z,1.88
2022-10-02T10:51:30.280Z,1.73
2022-10-02T10:54:40.598Z,1.88
2022-10-02T10:57:22.583Z,1.95
2022-10-02T10:59:50.420Z,1.90
2022-10-02T11:02:17.619Z,2.33
2022-10-02T11:04:59.351Z,2.05
2022-10-02T11:08:07.353Z,2.30
2022-10-02T11:11:11.539Z,2.00
2022-10-02T11:13:42.635Z,2.70
2022-10-02T11:16:25.191Z,2.63
2022-10-02T11:19:23.409Z,2.80
2022-10-02T11:22:07.901Z,2.05
2022-10-02T11:25:02.080Z,2.15
2022-10-02T11:31:47.260Z,3.15
2022-10-02T11:34:25.688Z,2.20
2022-10-02T11:37:31.690Z,1.92
2022-10-02T11:40:28.687Z,1.80
2022-10-02T11:43:22.855Z,2.13
2022-10-02T11:46:21.500Z,1.80
2022-10-02T11:49:03.192Z,2.17
2022-10-02T11:51:50.836Z,2.33
2022-10-02T11:54:50.900Z,1.80
2022-10-02T11:57:35.027Z,2.53
2022-10-02T12:00:39.463Z,2.40
2022-10-02T12:03:36.276Z,2.13
2022-10-02T12:06:42.058Z,1.67
2022-10-02T12:09:25.218Z,2.08
2022-10-02T12:12:09.485Z,1.70
2022-10-02T12:14:49.347Z,2.38
2022-10-02T12:17:16.497Z,1.77
2022-10-02T12:20:31.454Z,1.98
2022-10-02T12:23:47.967Z,1.70
2022-10-02T12:27:03.840Z,2.20
2022-10-02T12:29:46.368Z,1.70
2022-10-02T12:32:36.076Z,1.73
2022-10-02T12:35:33.326Z,1.77
2022-10-02T12:38:40.586Z,1.58
2022-10-02T12:41:35.657Z,1.65
2022-10-02T12:44:14.338Z,1.73
2022-10-02T12:47:09.773Z,1.65
2022-10-02T12:50:17.624Z,1.85
2022-10-02T12:53:06.159Z,1.77
2022-10-02T12:56:14.034Z,1.80
2022-10-02T12:59:13.620Z,1.55
2022-10-02T13:02:07.199Z,1.60
2022-10-02T13:05:03.345Z,2.10
2022-10-02T13:07:58.335Z,1.98
2022-10-02T13:10:57.508Z,1.92
2022-10-02T13:13:46.551Z,1.83
2022-10-02T13:16:25.018Z,1.45
2022-10-02T13:18:52.563Z,2.08
2022-10-02T13:21:41.240Z,1.98
2022-10-02T13:24:33.337Z,1.80
2022-10-02T13:27:37.814Z,1.80
2022-10-02T13:30:35.633Z,2.00
2022-10-02T13:33:16.826Z,1.73
2022-10-02T13:35:45.655Z,2.08
2022-10-02T13:38:35.968Z,3.20
2022-10-02T13:41:03.023Z,2.00
2022-10-02T13:43:56.417Z,1.65
2022-10-02T13:46:54.177Z,1.75
2022-10-02T13:49:39.976Z,1.48
2022-10-02T13:52:44.044Z,2.03
2022-10-02T13:55:34.495Z,1.95
2022-10-02T13:58:13.760Z,2.03
2022-10-02T14:00:55.250Z,1.30
2022-10-02T14:03:43.890Z,1.60
2022-10-02T14:06:25.520Z,1.75
2022-10-02T14:09:23.559Z,1.50
2022-10-02T14:11:56.389Z,1.90
2022-10-02T14:14:56.100Z,1.70
2022-10-02T14:17:50.315Z,1.83
2022-10-02T14:20:38.228Z,1.65
2022-10-02T14:23:05.354Z,1.38
2022-10-02T14:25:32.447Z,1.88
2022-10-02T14:28:37.585Z,2.13
2022-10-02T14:31:10.219Z,1.52
2022-10-02T14:33:37.337Z,1.90
2022-10-02T14:36:25.209Z,2.08
2022-10-02T14:39:00.460Z,1.73
2022-10-02T14:41:52.325Z,1.80
2022-10-02T14:44:43.724Z,2.10
2022-10-02T14:47:26.619Z,2.08
2022-10-02T14:49:53.677Z,1.60
2022-10-02T14:52:40.932Z,1.50
2022-10-02T14:55:18.467Z,1.83
2022-10-02T14:58:07.630Z,1.90
2022-10-02T15:01:00.144Z,1.83
2022-10-02T15:04:04.770Z,1.90
2022-10-02T15:06:58.768Z,2.20
2022-10-02T15:09:25.798Z,1.67
2022-10-02T15:12:04.392Z,2.03
2022-10-02T15:15:02.842Z,2.15
2022-10-02T15:17:56.856Z,1.55
2022-10-02T15:20:51.821Z,1.35
2022-10-02T15:23:44.142Z,1.73
2022-10-02T15:26:31.699Z,1.95
2022-10-02T15:29:21.552Z,1.73
2022-10-02T15:32:00.208Z,1.80
2022-10-02T15:34:46.425Z,1.90
2022-10-02T15:37:26.424Z,1.55
2022-10-02T15:40:05.547Z,1.60
2022-10-02T15:42:48.028Z,2.00
2022-10-02T15:45:35.788Z,2.53
2022-10-02T15:48:30.130Z,2.25
2022-10-02T15:51:03.191Z,1.73
2022-10-02T15:53:36.756Z,2.13
2022-10-02T15:56:03.908Z,2.20
2022-10-02T15:58:52.662Z,1.60
2022-10-02T16:01:31.291Z,1.98
2022-10-02T16:04:27.283Z,4.97
2022-10-02T16:07:15.691Z,2.13
2022-10-02T16:09:50.250Z,2.22
2022-10-02T16:12:36.487Z,2.38
2022-10-02T16:15:03.972Z,2.15
2022-10-02T16:17:53.148Z,4.78
2022-10-02T16:20:49.064Z,2.70
2022-10-02T16:23:44.961Z,2.28
2022-10-02T16:26:25.965Z,3.25
2022-10-02T16:29:11.294Z,2.53
2022-10-02T16:31:45.044Z,2.25
2022-10-02T16:34:12.889Z,2.53
2022-10-02T16:37:08.685Z,2.67
2022-10-02T16:39:42.656Z,3.95
2022-10-02T16:42:29.083Z,2.45
2022-10-02T16:45:25.902Z,2.40
2022-10-02T16:48:02.398Z,4.13
2022-10-02T16:51:08.596Z,2.92
2022-10-02T16:54:05.752Z,3.05
2022-10-02T16:56:45.481Z,2.95
2022-10-02T16:59:29.131Z,3.38
2022-10-02T17:02:18.292Z,4.05
2022-10-02T17:04:55.916Z,2.50
2022-10-02T17:07:48.283Z,2.50
2022-10-02T17:10:20.528Z,2.55
2022-10-02T17:12:52.771Z,2.65
2022-10-02T17:15:34.678Z,3.42
2022-10-02T17:18:19.471Z,3.88
2022-10-02T17:20:57.385Z,2.90
2022-10-02T17:23:35.610Z,2.63
2022-10-02T17:26:06.579Z,1.90
2022-10-02T17:28:49.583Z,1.92
2022-10-02T17:31:22.031Z,2.17
2022-10-02T17:33:53.347Z,2.72
2022-10-02T17:36:32.339Z,2.35
2022-10-02T17:39:18.181Z,3.15
2022-10-02T17:41:51.636Z,3.22
2022-10-02T17:44:39.899Z,3.25
2022-10-02T17:47:27.835Z,2.60
2022-10-02T17:50:14.097Z,2.47
2022-10-02T17:53:04.304Z,2.88
2022-10-02T17:56:23.723Z,2.83
2022-10-02T17:59:13.297Z,3.05
2022-10-02T18:02:11.199Z,3.08
2022-10-02T18:05:15.357Z,3.22
2022-10-02T18:08:09.006Z,3.45
2022-10-02T18:10:54.410Z,3.35
2022-10-02T18:13:29.843Z,3.53
2022-10-02T18:16:28.039Z,3.67
2022-10-02T18:18:55.125Z,9.85
2022-10-02T18:21:39.400Z,9.40
2022-10-02T18:24:21.401Z,8.23
2022-10-02T18:26:48.438Z,7.55
2022-10-02T18:29:38.783Z,7.85
2022-10-02T18:32:35.907Z,10.25
2022-10-02T18:35:24.246Z,9.18
2022-10-02T18:37:59.237Z,10.55
2022-10-02T18:40:36.903Z,8.43
2022-10-02T18:43:21.904Z,6.60
2022-10-02T18:45:49.048Z,5.93
2022-10-02T18:48:40.668Z,4.70
2022-10-02T18:51:26.489Z,4.70
2022-10-02T18:54:12.278Z,5.00
2022-10-02T18:56:46.717Z,6.65
2022-10-02T18:59:21.108Z,7.47
2022-10-02T19:01:51.276Z,8.30
2022-10-02T19:06:57.671Z,7.95
2022-10-02T19:09:26.914Z,10.43
2022-10-02T19:12:25.543Z,11.38
2022-10-02T19:14:56.046Z,11.55
2022-10-02T19:17:24.338Z,9.63
2022-10-02T19:19:51.995Z,6.53
2022-10-02T19:22:30.443Z,5.35
2022-10-02T19:25:08.590Z,5.65
2022-10-02T19:27:36.908Z,4.25
2022-10-02T19:30:25.497Z,4.45
2022-10-02T19:32:54.214Z,4.97
2022-10-02T19:35:22.260Z,7.22
2022-10-02T19:37:51.351Z,8.13
2022-10-02T19:40:23.810Z,10.48
2022-10-02T19:42:56.194Z,10.95
2022-10-02T19:45:25.684Z,11.15
2022-10-02T19:47:58.204Z,10.55
2022-10-02T19:50:28.485Z,11.27
2022-10-02T19:55:29.516Z,9.20
2022-10-02T19:58:16.895Z,9.18
2022-10-02T20:00:44.361Z,9.63
2022-10-02T20:03:30.738Z,7.13
2022-10-02T20:06:00.665Z,5.30
2022-10-02T20:08:31.641Z,4.32
2022-10-02T20:11:02.767Z,5.05
2022-10-02T20:13:37.028Z,4.65
2022-10-02T20:16:34.207Z,4.75
2022-10-02T20:19:02.041Z,5.47
2022-10-02T20:21:32.037Z,4.43
2022-10-02T20:24:00.657Z,4.18
2022-10-02T20:26:29.429Z,3.58
2022-10-02T20:29:01.920Z,3.25
2022-10-02T20:31:47.146Z,3.08
2022-10-02T20:34:23.332Z,3.10
2022-10-02T20:36:59.454Z,3.03
2022-10-02T20:39:29.094Z,3.33
2022-10-02T20:42:02.872Z,3.70
2022-10-02T20:44:31.478Z,3.13
2022-10-02T20:47:10.378Z,2.97
2022-10-02T20:50:04.635Z,2.67
2022-10-02T20:52:34.609Z,3.20
2022-10-02T20:55:01.656Z,3.20
2022-10-02T20:57:59.713Z,3.50
2022-10-02T21:00:28.921Z,3.70
2022-10-02T21:02:59.572Z,3.58
2022-10-02T21:05:42.715Z,3.22
2022-10-02T21:08:28.071Z,4.00
2022-10-02T21:11:07.211Z,3.45
2022-10-02T21:13:34.322Z,2.92
2022-10-02T21:16:21.026Z,3.67
2022-10-02T21:18:54.751Z,3.53
2022-10-02T21:21:30.756Z,3.40
2022-10-02T21:24:04.039Z,3.08
2022-10-02T21:26:34.039Z,3.35
2022-10-02T21:29:15.145Z,3.70
2022-10-02T21:31:53.478Z,3.03
2022-10-02T21:34:42.725Z,2.45
2022-10-02T21:37:28.671Z,3.03
2022-10-02T21:40:09.581Z,3.40
2022-10-02T21:42:42.897Z,3.80
2022-10-02T21:45:28.662Z,3.38
2022-10-02T21:48:14.611Z,3.40
2022-10-02T21:51:06.087Z,2.97
2022-10-02T21:53:51.348Z,3.08
2022-10-02T21:56:37.249Z,3.17
2022-10-02T21:59:04.484Z,3.03
2022-10-02T22:01:42.654Z,2.33
2022-10-02T22:04:21.859Z,3.40
2022-10-02T22:07:02.744Z,3.22
2022-10-02T22:09:29.799Z,3.05
2022-10-02T22:12:08.831Z,3.25
2022-10-02T22:15:04.648Z,3.40
2022-10-02T22:17:47.014Z,3.22
2022-10-02T22:20:23.442Z,3.40
2022-10-02T22:23:09.395Z,3.20
2022-10-02T22:26:15.144Z,3.95
2022-10-02T22:28:47.467Z,4.25
2022-10-02T22:31:33.089Z,3.65
2022-10-02T22:34:06.712Z,4.05
2022-10-02T22:36:49.091Z,4.00
2022-10-02T22:39:22.680Z,4.18
2022-10-02T22:41:55.918Z,5.43
2022-10-02T22:44:28.439Z,4.57
2022-10-02T22:46:59.757Z,4.80
2022-10-02T22:49:31.309Z,5.15
2022-10-02T22:52:05.069Z,5.53
2022-10-02T22:54:37.661Z,4.90
2022-10-02T22:57:09.107Z,4.82
2022-10-02T22:59:55.009Z,6.00
2022-10-02T23:02:32.816Z,5.28
2022-10-02T23:05:05.521Z,4.20
2022-10-02T23:07:37.667Z,5.03
2022-10-02T23:10:13.764Z,5.15
2022-10-02T23:12:50.364Z,4.78
2022-10-02T23:18:04.996Z,4.28
2022-10-02T23:21:02.499Z,3.17
2022-10-02T23:23:34.182Z,4.07
2022-10-02T23:26:07.996Z,4.10
2022-10-02T23:28:55.343Z,4.00
2022-10-02T23:31:30.360Z,3.30
2022-10-02T23:34:16.273Z,3.58
2022-10-02T23:36:59.339Z,3.38
2022-10-02T23:39:29.697Z,3.30
2022-10-02T23:44:34.175Z,3.35
2022-10-02T23:47:12.091Z,3.38
2022-10-02T23:49:45.358Z,3.05
2022-10-02T23:52:32.274Z,3.47
2022-10-02T23:55:18.558Z,3.20
2022-10-02T23:57:51.930Z,3.60
